Time;durP1;ratioP1;P1;durP2;ratioP2;P2;SDS_P1;SDS_P2;PMS_P1;PMS_P2;Temp;Humidity;BMP_temperature;BMP_pressure;BME280_temperature;BME280_humidity;BME280_pressure;Samples;Min_cycle;Max_cycle;Signal;HPM_P1;HPM_P2
2023/02/12 00:00:22;;;;;;;27.73;12.20;;;4.50;99.90;;;5.22;100.00;100185.53;4998042;28;20500;-80
2023/02/12 00:02:51;;;;;;;25.83;12.23;;;4.50;99.90;;;5.21;100.00;100170.91;4999351;28;20477;-80
2023/02/12 00:05:20;;;;;;;28.00;10.83;;;4.50;99.90;;;5.21;100.00;100177.84;4999290;28;20471;-80
2023/02/12 00:07:50;;;;;;;27.93;12.10;;;4.50;99.90;;;5.22;100.00;100174.31;4995743;28;20537;-80
2023/02/12 00:10:20;;;;;;;22.50;11.97;;;4.50;99.90;;;5.19;100.00;100172.78;4995971;28;20496;-79
2023/02/12 00:12:50;;;;;;;24.50;11.40;;;4.50;99.90;;;5.20;100.00;100173.59;4997120;28;20478;-80
2023/02/12 00:15:19;;;;;;;31.03;11.40;;;4.50;99.90;;;5.17;100.00;100190.19;4996818;28;20502;-80
2023/02/12 00:17:49;;;;;;;21.20;11.40;;;4.40;99.90;;;5.18;100.00;100178.88;4996152;28;20998;-80
2023/02/12 00:20:19;;;;;;;23.57;12.10;;;4.40;99.90;;;5.19;100.00;100188.31;4997824;28;20816;-80
2023/02/12 00:22:49;;;;;;;23.73;12.77;;;4.50;99.90;;;5.14;100.00;100177.41;4994863;28;20461;-80
2023/02/12 00:25:19;;;;;;;26.90;11.80;;;4.40;99.90;;;5.15;100.00;100181.69;4994338;28;20471;-80
2023/02/12 00:27:50;;;;;;;24.23;10.60;;;4.50;99.90;;;5.13;100.00;100186.16;4995139;28;20460;-80
2023/02/12 00:30:20;;;;;;;24.50;12.73;;;4.40;99.90;;;5.13;100.00;100186.16;4994754;28;20462;-80
2023/02/12 00:32:50;;;;;;;23.80;12.70;;;4.40;99.90;;;5.13;100.00;100185.31;4994940;28;20466;-79
2023/02/12 00:35:20;;;;;;;22.97;11.40;;;4.40;99.90;;;5.12;100.00;100175.84;4993686;28;20505;-80
2023/02/12 00:37:49;;;;;;;18.70;10.97;;;4.40;99.90;;;5.07;100.00;100183.91;4996411;28;20465;-80
2023/02/12 00:40:18;;;;;;;25.70;12.23;;;4.40;99.90;;;5.06;100.00;100180.53;4996383;28;20482;-80
2023/02/12 00:42:48;;;;;;;26.73;11.77;;;4.40;99.90;;;5.08;100.00;100180.41;4997241;28;20517;-80
2023/02/12 00:45:18;;;;;;;26.60;12.50;;;4.40;99.90;;;5.06;100.00;100177.09;4995371;28;20467;-80
2023/02/12 00:47:47;;;;;;;23.40;11.73;;;4.40;99.90;;;5.04;100.00;100184.97;4997483;28;20459;-80
2023/02/12 00:50:18;;;;;;;21.80;11.33;;;4.30;99.90;;;5.08;100.00;100185.59;4993314;28;20467;-80
2023/02/12 00:52:47;;;;;;;29.30;12.73;;;4.30;99.90;;;5.10;100.00;100178.56;4997692;28;20473;-80
2023/02/12 00:55:16;;;;;;;25.50;11.50;;;4.40;99.90;;;5.09;100.00;100182.09;4996709;28;20534;-80
2023/02/12 00:57:45;;;;;;;34.00;12.27;;;4.40;99.90;;;5.12;100.00;100186.22;4995550;28;20466;-80
2023/02/12 01:00:19;;;;;;;23.20;12.53;;;4.50;99.90;;;5.15;100.00;100194.63;4996793;28;20483;-80
2023/02/12 01:02:50;;;;;;;24.33;11.20;;;4.60;99.90;;;5.16;100.00;100188.53;4995875;28;20462;-80
2023/02/12 01:05:20;;;;;;;18.20;10.20;;;4.60;99.90;;;5.14;100.00;100187.78;4997191;28;20483;-79
2023/02/12 01:07:52;;;;;;;27.90;12.63;;;4.50;99.90;;;5.13;100.00;100185.31;4997551;28;20470;-80
2023/02/12 01:10:22;;;;;;;22.13;11.60;;;4.50;99.90;;;5.12;100.00;100187.06;4997373;28;20892;-80
2023/02/12 01:12:52;;;;;;;22.97;11.73;;;4.50;99.90;;;5.16;100.00;100192.88;4996481;28;20458;-79
2023/02/12 01:15:22;;;;;;;19.17;11.23;;;4.60;99.90;;;5.16;100.00;100204.09;4998191;28;20573;-80
2023/02/12 01:17:52;;;;;;;27.07;11.77;;;4.60;99.90;;;5.15;100.00;100186.03;4997009;28;20831;-80
2023/02/12 01:20:24;;;;;;;19.93;10.97;;;4.50;99.90;;;5.11;100.00;100182.81;4995501;28;20544;-80
2023/02/12 01:22:53;;;;;;;24.97;11.50;;;4.50;99.90;;;5.09;100.00;100192.44;4998170;28;20467;-80
2023/02/12 01:25:23;;;;;;;21.67;11.43;;;4.40;99.90;;;5.08;100.00;100190.78;4994449;28;21158;-80
2023/02/12 01:27:54;;;;;;;19.70;11.13;;;4.50;99.90;;;5.06;100.00;100190.06;4996162;28;20555;-79
2023/02/12 01:30:26;;;;;;;26.17;12.70;;;4.50;99.90;;;5.07;100.00;100189.13;4995185;28;20477;-80
2023/02/12 01:32:57;;;;;;;27.10;12.20;;;4.40;99.90;;;5.07;100.00;100195.13;4996190;28;21198;-80
2023/02/12 01:35:26;;;;;;;21.97;10.40;;;4.50;99.90;;;5.06;100.00;100197.84;4996591;28;20508;-80
2023/02/12 01:37:55;;;;;;;20.83;10.87;;;4.40;99.90;;;5.06;100.00;100203.03;4996780;28;20470;-80
2023/02/12 01:40:25;;;;;;;17.20;9.70;;;4.40;99.90;;;5.07;100.00;100204.66;5000068;28;20935;-80
2023/02/12 01:42:55;;;;;;;17.77;10.90;;;4.40;99.90;;;5.08;100.00;100202.00;4999637;28;20528;-80
2023/02/12 01:45:51;;;;;;;19.63;10.50;;;4.40;99.90;;;5.08;100.00;100198.56;5000427;28;20467;-80
2023/02/12 01:48:27;;;;;;;24.43;10.53;;;4.40;99.90;;;5.06;100.00;100198.69;4999034;28;20520;-80
2023/02/12 01:50:58;;;;;;;18.23;11.33;;;4.40;99.90;;;5.04;100.00;100190.16;4998462;28;20455;-80
2023/02/12 01:53:35;;;;;;;19.80;10.17;;;4.40;99.90;;;5.04;100.00;100190.16;4998814;28;20461;-80
2023/02/12 01:56:06;;;;;;;18.43;9.40;;;4.30;99.90;;;5.05;100.00;100190.97;4999869;28;20526;-80
2023/02/12 01:58:41;;;;;;;20.30;11.77;;;4.30;99.90;;;5.02;100.00;100191.19;4998823;28;20459;-80
2023/02/12 02:01:19;;;;;;;19.63;10.77;;;4.30;99.90;;;4.99;100.00;100183.59;4999277;28;20466;-79
2023/02/12 02:03:57;;;;;;;26.10;10.70;;;4.30;99.90;;;5.02;100.00;100175.63;4999635;28;20927;-80
2023/02/12 02:06:32;;;;;;;26.97;12.03;;;4.30;99.90;;;5.02;100.00;100181.66;4999497;28;20522;-80
2023/02/12 02:09:03;;;;;;;18.40;11.70;;;4.30;99.90;;;5.01;100.00;100179.97;5000053;28;20497;-80
2023/02/12 02:14:32;;;;;;;22.03;11.47;;;4.30;99.90;;;5.00;100.00;100185.25;5000633;28;20970;-79
2023/02/12 02:17:51;;;;;;;19.00;10.73;;;4.20;99.90;;;5.00;100.00;100180.91;4999741;28;20877;-80
2023/02/12 02:21:12;;;;;;;20.90;10.03;;;4.20;99.90;;;5.01;100.00;100179.97;5001063;28;20467;-80
2023/02/12 02:24:26;;;;;;;22.00;10.57;;;4.30;99.90;;;4.98;100.00;100174.16;4986347;28;20483;-80
2023/02/12 02:27:19;;;;;;;24.23;10.43;;;4.20;99.90;;;5.01;100.00;100177.38;4998104;28;20466;-80
2023/02/12 02:30:34;;;;;;;20.33;10.60;;;4.30;99.90;;;5.04;100.00;100173.75;4999949;28;20795;-80
2023/02/12 02:33:24;;;;;;;17.07;9.97;;;4.30;99.90;;;5.02;100.00;100160.91;4999023;28;20826;-80
2023/02/12 02:36:09;;;;;;;22.47;12.30;;;4.30;99.90;;;5.04;100.00;100164.22;5000301;28;20921;-80
2023/02/12 02:38:46;;;;;;;19.37;10.13;;;4.40;99.90;;;5.05;100.00;100165.06;4998746;28;20462;-80
2023/02/12 02:41:26;;;;;;;19.20;10.10;;;4.40;99.90;;;5.00;100.00;100167.94;4995057;28;20483;-80
2023/02/12 02:43:57;;;;;;;27.03;10.07;;;4.30;99.90;;;5.03;100.00;100166.94;4999881;28;20459;-80
2023/02/12 02:46:34;;;;;;;21.70;10.40;;;4.30;99.90;;;5.00;100.00;100167.09;4998028;28;20512;-80
2023/02/12 02:49:11;;;;;;;21.10;10.43;;;4.30;99.90;;;4.98;100.00;100162.03;4996683;28;21062;-80
2023/02/12 02:51:46;;;;;;;27.50;10.97;;;4.30;99.90;;;4.98;100.00;100158.59;4998372;28;20482;-80
2023/02/12 02:54:22;;;;;;;20.90;11.37;;;4.30;99.90;;;4.95;100.00;100164.00;4993563;28;20557;-80
2023/02/12 02:56:59;;;;;;;18.60;10.47;;;4.30;99.90;;;4.95;100.00;100164.00;4995520;28;20617;-80
2023/02/12 02:59:37;;;;;;;21.17;11.07;;;4.20;99.90;;;4.96;100.00;100157.88;4996271;28;20490;-81
2023/02/12 03:02:16;;;;;;;20.30;10.20;;;4.30;99.90;;;4.98;100.00;100163.78;4995444;28;20556;-80
2023/02/12 03:04:51;;;;;;;24.63;10.90;;;4.30;99.90;;;5.01;100.00;100163.59;4998973;28;20977;-80
2023/02/12 03:07:28;;;;;;;20.73;11.27;;;4.30;99.90;;;5.00;100.00;100173.13;4998657;28;20958;-80
2023/02/12 03:10:04;;;;;;;20.50;9.77;;;4.30;99.90;;;5.01;100.00;100169.59;4998497;28;20459;-80
2023/02/12 03:12:44;;;;;;;18.20;9.60;;;4.30;99.90;;;5.01;100.00;100166.19;4996923;28;20854;-80
2023/02/12 03:15:21;;;;;;;23.17;10.50;;;4.40;99.90;;;5.00;100.00;100164.50;4997801;28;20486;-80
2023/02/12 03:17:53;;;;;;;25.70;10.80;;;4.30;99.90;;;5.00;100.00;100167.94;4998828;28;20491;-80
2023/02/12 03:20:27;;;;;;;17.70;10.20;;;4.30;99.90;;;5.04;100.00;100163.38;4998085;28;20466;-80
2023/02/12 03:23:04;;;;;;;26.40;10.50;;;4.50;99.90;;;5.01;100.00;100156.66;5000399;28;20543;-80
2023/02/12 03:25:40;;;;;;;23.77;10.40;;;4.40;99.90;;;5.01;100.00;100161.84;4998721;28;20988;-80
2023/02/12 03:28:18;;;;;;;21.07;9.57;;;4.40;99.90;;;5.03;100.00;100166.94;4999665;28;20490;-80
2023/02/12 03:30:58;;;;;;;23.97;11.50;;;4.40;99.90;;;5.04;100.00;100168.56;4998782;28;20600;-80
2023/02/12 03:33:42;;;;;;;19.27;10.27;;;4.40;99.90;;;5.01;100.00;100164.44;4997597;28;20546;-80
2023/02/12 03:36:27;;;;;;;20.57;10.23;;;4.30;99.90;;;5.00;100.00;100167.09;4997563;28;21053;-80
2023/02/12 03:39:04;;;;;;;19.03;10.13;;;4.30;99.90;;;5.01;100.00;100159.25;4998976;28;20480;-80
2023/02/12 03:41:43;;;;;;;17.47;10.23;;;4.30;99.90;;;5.00;100.00;100160.16;4998170;28;20465;-80
2023/02/12 03:44:27;;;;;;;21.50;10.93;;;4.30;99.90;;;5.03;100.00;100162.56;4996023;28;20814;-80
2023/02/12 03:47:05;;;;;;;17.63;8.60;;;4.40;99.90;;;4.94;100.00;100163.16;4996759;28;20467;-80
2023/02/12 03:49:43;;;;;;;19.07;10.00;;;4.30;99.90;;;4.94;100.00;100170.94;4996446;28;20491;-80
2023/02/12 03:52:14;;;;;;;20.27;10.57;;;4.30;99.90;;;4.95;100.00;100169.19;4995986;28;21441;-80
2023/02/12 03:54:44;;;;;;;22.07;10.90;;;4.30;99.90;;;4.97;100.00;100162.97;4997537;28;20522;-80
2023/02/12 03:57:20;;;;;;;28.80;11.50;;;4.40;99.90;;;4.98;100.00;100168.97;4997700;28;20534;-80
2023/02/12 03:59:51;;;;;;;20.40;10.40;;;4.40;99.90;;;4.98;100.00;100168.97;4997155;28;20459;-80
2023/02/12 04:02:20;;;;;;;16.00;9.87;;;4.50;99.90;;;4.96;100.00;100165.66;4993933;28;20459;-80
2023/02/12 04:04:52;;;;;;;19.87;10.27;;;4.30;99.90;;;4.95;100.00;100164.81;4998297;28;20564;-80
2023/02/12 04:07:22;;;;;;;20.87;10.30;;;4.30;99.90;;;4.94;100.00;100163.16;4997611;28;20499;-80
2023/02/12 04:09:51;;;;;;;19.20;10.13;;;4.30;99.90;;;4.93;100.00;100165.84;4998177;28;20477;-80
2023/02/12 04:12:40;;;;;;;17.57;10.30;;;4.30;99.90;;;4.93;100.00;100165.84;4997804;28;20475;-80
2023/02/12 04:15:50;;;;;;;22.00;9.20;;;4.20;99.90;;;4.93;100.00;100171.03;4996336;28;20466;-80
2023/02/12 04:18:25;;;;;;;26.40;10.00;;;4.20;99.90;;;4.94;100.00;100173.53;4998698;28;20589;-80
2023/02/12 04:21:09;;;;;;;17.80;10.23;;;4.20;99.90;;;4.95;100.00;100164.00;4997648;28;20636;-80
2023/02/12 04:24:00;;;;;;;19.30;10.33;;;4.20;99.90;;;4.91;100.00;100167.72;4997439;28;20614;-80
2023/02/12 04:26:40;;;;;;;21.17;10.07;;;4.20;99.90;;;4.87;100.00;100167.06;4997419;28;20543;-80
2023/02/12 04:29:23;;;;;;;16.07;9.70;;;4.20;99.90;;;4.87;100.00;100174.84;4998088;28;20463;-80
2023/02/12 04:32:03;;;;;;;19.27;10.07;;;4.10;99.90;;;4.86;100.00;100168.00;4996317;28;20542;-80
2023/02/12 04:34:43;;;;;;;20.60;9.67;;;4.20;99.90;;;4.80;100.00;100181.34;4997888;28;20499;-80
2023/02/12 04:37:19;;;;;;;23.40;9.30;;;4.10;99.90;;;4.77;100.00;100175.53;4997426;28;20502;-80
2023/02/12 04:39:51;;;;;;;16.70;9.70;;;4.00;99.90;;;4.72;100.00;100183.59;4996593;28;20549;-80
2023/02/12 04:42:21;;;;;;;18.67;11.13;;;4.00;99.90;;;4.75;100.00;100180.00;4995158;28;20482;-80
2023/02/12 04:44:51;;;;;;;24.20;10.73;;;4.00;99.90;;;4.74;100.00;100168.78;4994130;28;20600;-80
2023/02/12 04:47:21;;;;;;;19.43;10.00;;;4.00;99.90;;;4.78;100.00;100174.63;4996158;28;20464;-80
2023/02/12 04:49:51;;;;;;;16.80;10.13;;;4.00;99.90;;;4.78;100.00;100170.28;4995877;28;20586;-80
2023/02/12 04:52:23;;;;;;;16.83;9.73;;;4.00;99.90;;;4.72;100.00;100173.22;4994190;28;20475;-80
2023/02/12 04:54:52;;;;;;;19.90;10.40;;;3.90;99.90;;;4.70;100.00;100169.06;4994547;28;20498;-80
2023/02/12 04:57:22;;;;;;;14.67;8.90;;;3.90;99.90;;;4.68;100.00;100176.97;4996119;28;20494;-80
2023/02/12 04:59:53;;;;;;;23.27;10.73;;;3.90;99.90;;;4.71;100.00;100170.75;4996351;28;20466;-80
2023/02/12 05:02:22;;;;;;;17.17;9.40;;;3.90;99.90;;;4.70;100.00;100171.66;4997580;28;20545;-80
2023/02/12 05:04:53;;;;;;;18.80;9.53;;;3.90;99.90;;;4.67;100.00;100164.94;4997463;28;20466;-80
2023/02/12 05:07:25;;;;;;;16.00;9.73;;;3.90;99.90;;;4.64;100.00;100165.13;4996029;28;20604;-80
2023/02/12 05:09:54;;;;;;;20.13;10.63;;;3.90;99.90;;;4.66;100.00;100167.59;4997764;28;21095;-80
2023/02/12 05:12:25;;;;;;;19.60;10.27;;;3.90;99.90;;;4.68;100.00;100160.59;4996563;28;21057;-80
2023/02/12 05:14:55;;;;;;;27.53;12.70;;;3.90;99.90;;;4.72;100.00;100167.25;5002107;28;20512;-80
2023/02/12 05:17:24;;;;;;;21.80;9.77;;;4.00;99.90;;;4.73;100.00;100161.09;4998386;28;20498;-80
2023/02/12 05:19:55;;;;;;;22.30;10.70;;;4.00;99.90;;;4.75;100.00;100167.03;5001159;28;20471;-80
2023/02/12 05:22:26;;;;;;;19.50;10.23;;;4.10;99.90;;;4.75;100.00;100167.03;4999900;28;20976;-80
2023/02/12 05:24:56;;;;;;;21.20;9.33;;;4.10;99.90;;;4.77;100.00;100160.00;5001834;28;20557;-81
2023/02/12 05:27:27;;;;;;;17.90;11.03;;;4.10;99.90;;;4.80;100.00;100170.16;5000439;28;20469;-80
2023/02/12 05:29:56;;;;;;;20.63;10.07;;;4.10;99.90;;;4.81;100.00;100171.81;5000763;28;20891;-80
2023/02/12 05:32:26;;;;;;;18.00;10.17;;;4.10;99.90;;;4.82;100.00;100173.50;5000047;28;20504;-80
2023/02/12 05:34:55;;;;;;;18.13;9.57;;;4.10;99.90;;;4.84;100.00;100174.22;4997489;28;20502;-80
2023/02/12 05:37:26;;;;;;;22.23;10.37;;;4.10;99.90;;;4.84;100.00;100175.06;4997156;28;20997;-80
2023/02/12 05:39:55;;;;;;;21.70;11.20;;;4.20;99.90;;;4.84;100.00;100176.81;4997760;28;20458;-80
2023/02/12 05:42:26;;;;;;;18.93;11.17;;;4.10;99.90;;;4.83;100.00;100169.94;4998446;28;20498;-80
2023/02/12 05:44:55;;;;;;;24.93;10.40;;;4.10;99.90;;;4.83;100.00;100175.13;4997332;28;20953;-80
2023/02/12 05:47:24;;;;;;;55.90;23.33;;;4.20;99.90;;;4.82;100.00;100169.16;4995872;28;20553;-74
2023/02/12 05:49:54;;;;;;;17.03;10.20;;;4.20;99.90;;;4.78;100.00;100166.84;4996796;28;20462;-78
2023/02/12 05:52:26;;;;;;;19.60;9.30;;;4.10;99.90;;;4.77;100.00;100173.78;4997937;28;20467;-79
2023/02/12 05:54:57;;;;;;;19.13;10.00;;;4.10;99.90;;;4.79;100.00;100173.69;4998597;28;20486;-79
2023/02/12 05:57:28;;;;;;;17.20;9.03;;;4.00;99.90;;;4.80;100.00;100176.16;4998137;28;20473;-79
2023/02/12 05:59:57;;;;;;;17.53;8.87;;;4.00;99.90;;;4.78;100.00;100175.44;4997706;28;21073;-79
2023/02/12 06:02:27;;;;;;;17.20;9.33;;;4.00;99.90;;;4.77;100.00;100175.53;4997890;28;20470;-79
2023/02/12 06:04:57;;;;;;;14.77;8.43;;;4.00;99.90;;;4.73;100.00;100180.09;4996443;28;20498;-79
2023/02/12 06:07:29;;;;;;;16.83;8.87;;;4.00;99.90;;;4.78;100.00;100172.84;4995828;28;20969;-80
2023/02/12 06:09:59;;;;;;;19.50;8.43;;;4.00;99.90;;;4.81;100.00;100177.00;4996306;28;20532;-79
2023/02/12 06:12:30;;;;;;;15.73;8.90;;;4.10;99.90;;;4.82;100.00;100178.69;4996300;28;20470;-79
2023/02/12 06:15:00;;;;;;;14.17;8.50;;;4.10;99.90;;;4.78;100.00;100172.84;4998878;28;20892;-79
2023/02/12 06:17:30;;;;;;;16.80;9.67;;;4.00;99.90;;;4.78;100.00;100182.38;4996445;28;20475;-74
2023/02/12 06:19:59;;;;;;;15.30;8.87;;;4.00;99.90;;;4.78;100.00;100183.22;4997503;28;20472;-78
2023/02/12 06:22:31;;;;;;;20.43;10.70;;;4.00;99.90;;;4.81;100.00;100184.78;4997824;28;20470;-79
2023/02/12 06:25:02;;;;;;;16.87;9.70;;;4.10;99.90;;;4.79;100.00;100184.88;4990579;28;20597;-79
2023/02/12 06:27:32;;;;;;;24.53;9.03;;;4.10;99.90;;;4.81;100.00;100192.56;4972923;28;20470;-79
2023/02/12 06:30:04;;;;;;;17.73;8.77;;;4.10;99.90;;;4.79;100.00;100191.84;4998050;28;20521;-79
2023/02/12 06:32:34;;;;;;;14.30;8.97;;;4.10;99.90;;;4.77;100.00;100196.25;5004843;28;20474;-79
2023/02/12 06:35:06;;;;;;;15.73;9.20;;;4.00;99.90;;;4.79;100.00;100189.25;5003608;28;20494;-78
2023/02/12 06:37:38;;;;;;;16.30;9.07;;;4.00;99.90;;;4.77;100.00;100186.75;5003647;28;20487;-79
2023/02/12 06:40:09;;;;;;;15.63;8.03;;;4.00;99.90;;;4.79;100.00;100191.84;4997908;28;20454;-79
2023/02/12 06:42:38;;;;;;;17.40;9.77;;;4.00;99.90;;;4.80;100.00;100198.66;5000945;28;20537;-79
2023/02/12 06:45:09;;;;;;;23.83;9.10;;;4.10;99.90;;;4.80;100.00;100196.06;5003673;28;20546;-79
2023/02/12 06:47:40;;;;;;;14.47;9.10;;;4.10;99.90;;;4.83;100.00;100199.28;5002855;28;20464;-79
2023/02/12 06:50:12;;;;;;;16.40;9.20;;;4.10;99.90;;;4.81;100.00;100189.97;5001756;28;20458;-79
2023/02/12 06:52:43;;;;;;;18.47;8.33;;;4.10;99.90;;;4.79;100.00;100203.00;5004228;28;20545;-79
2023/02/12 06:55:14;;;;;;;14.93;8.57;;;4.10;99.90;;;4.74;100.00;100207.66;4999706;28;20483;-79
2023/02/12 06:57:44;;;;;;;16.53;9.57;;;4.00;99.90;;;4.77;100.00;100214.41;5004527;28;20520;-79
2023/02/12 07:00:15;;;;;;;24.97;9.50;;;4.10;99.90;;;4.79;100.00;100210.78;5001418;28;20973;-79
2023/02/12 07:02:45;;;;;;;15.70;8.97;;;4.10;99.90;;;4.80;100.00;100214.22;4997464;28;20471;-75
2023/02/12 07:05:14;;;;;;;14.40;8.50;;;4.10;99.90;;;4.80;100.00;100220.22;4996516;28;20886;-79
2023/02/12 07:07:45;;;;;;;16.20;8.23;;;4.10;99.90;;;4.80;100.00;100224.56;5003392;28;20470;-79
2023/02/12 07:10:15;;;;;;;14.20;8.60;;;4.00;99.90;;;4.81;100.00;100226.25;5000647;28;20524;-79
2023/02/12 07:12:45;;;;;;;14.87;7.90;;;4.10;99.90;;;4.83;100.00;100226.97;4997637;28;20467;-79
2023/02/12 07:15:16;;;;;;;12.90;8.20;;;4.10;99.90;;;4.81;100.00;100224.50;4995739;28;21081;-80
2023/02/12 07:17:46;;;;;;;15.60;9.03;;;4.10;99.90;;;4.82;100.00;100220.16;4996357;28;20527;-79
2023/02/12 07:20:18;;;;;;;15.57;8.90;;;4.10;99.90;;;4.83;100.00;100225.22;4997200;28;21010;-79
2023/02/12 07:22:49;;;;;;;15.53;8.93;;;4.10;99.90;;;4.82;100.00;100222.72;4995422;28;20471;-79
2023/02/12 07:25:20;;;;;;;12.90;7.60;;;4.10;99.90;;;4.82;100.00;100225.31;4995654;28;20475;-79
2023/02/12 07:27:50;;;;;;;15.00;7.50;;;4.10;99.90;;;4.82;100.00;100226.16;4995685;28;21146;-79
2023/02/12 07:30:22;;;;;;;20.63;9.30;;;4.10;99.90;;;4.87;100.00;100228.44;4995307;28;20853;-79
2023/02/12 07:32:52;;;;;;;21.27;8.83;;;4.10;99.90;;;4.88;100.00;100230.13;4997219;28;20470;-79
2023/02/12 07:35:22;;;;;;;15.33;8.53;;;4.20;99.90;;;4.89;100.00;100232.63;4996301;28;21469;-79
2023/02/12 07:37:53;;;;;;;15.87;8.73;;;4.20;99.90;;;4.92;100.00;100223.81;4996861;28;20880;-79
2023/02/12 07:40:23;;;;;;;16.57;9.03;;;4.20;99.90;;;4.93;100.00;100225.47;4996967;28;20506;-79
2023/02/12 07:42:55;;;;;;;13.47;8.60;;;4.20;99.90;;;4.94;100.00;100221.94;5000027;28;21042;-79
2023/02/12 07:45:25;;;;;;;18.37;9.00;;;4.20;99.90;;;4.98;100.00;100215.63;4999113;28;20462;-79
2023/02/12 07:47:55;;;;;;;15.60;9.47;;;4.30;99.90;;;5.01;100.00;100223.22;4996395;28;20474;-79
2023/02/12 07:50:25;;;;;;;19.83;9.87;;;4.30;99.90;;;4.99;100.00;100217.31;5000301;28;20470;-79
2023/02/12 07:52:56;;;;;;;19.73;9.40;;;4.30;99.90;;;5.02;100.00;100219.69;4998311;28;20527;-79
2023/02/12 07:55:25;;;;;;;24.60;9.30;;;4.30;99.90;;;5.05;100.00;100219.50;4995951;28;20474;-79
2023/02/12 07:57:57;;;;;;;15.90;9.70;;;4.30;99.90;;;5.04;100.00;100225.59;4999498;28;20815;-78
2023/02/12 08:00:25;;;;;;;20.43;8.97;;;4.30;99.90;;;5.03;100.00;100226.56;4997000;28;20507;-79
2023/02/12 08:02:57;;;;;;;19.10;9.43;;;4.30;99.90;;;5.07;100.00;100223.66;4994327;28;20821;-78
2023/02/12 08:05:28;;;;;;;15.70;10.00;;;4.40;99.90;;;5.10;100.00;100235.59;4994844;28;20903;-79
2023/02/12 08:07:59;;;;;;;14.93;9.50;;;4.40;99.90;;;5.12;100.00;100232.91;4994611;28;20499;-78
2023/02/12 08:10:29;;;;;;;19.97;9.73;;;4.40;99.90;;;5.14;100.00;100231.06;4993627;28;20455;-78
2023/02/12 08:13:02;;;;;;;14.50;9.60;;;4.50;99.90;;;5.17;100.00;100239.47;4993394;28;20470;-79
2023/02/12 08:15:32;;;;;;;18.20;10.13;;;4.50;99.90;;;5.20;100.00;100234.09;4994838;28;20467;-79
2023/02/12 08:18:03;;;;;;;17.53;9.70;;;4.50;99.90;;;5.24;100.00;100243.31;4994394;28;20565;-79
2023/02/12 08:20:34;;;;;;;17.27;9.87;;;4.60;99.90;;;5.25;100.00;100232.00;4994295;28;20530;-79
2023/02/12 08:23:07;;;;;;;17.30;9.17;;;4.60;99.90;;;5.28;100.00;100234.41;4992883;28;20988;-79
2023/02/12 08:25:38;;;;;;;16.13;10.10;;;4.60;99.90;;;5.32;100.00;100225.50;4996769;28;20872;-79
2023/02/12 08:28:07;;;;;;;18.53;9.67;;;4.70;99.90;;;5.37;100.00;100238.19;4993359;28;20564;-79
2023/02/12 08:30:39;;;;;;;14.90;9.77;;;4.70;99.90;;;5.38;100.00;100235.47;4990708;28;20558;-79
2023/02/12 08:33:09;;;;;;;20.30;11.80;;;4.70;99.90;;;5.41;100.00;100240.47;4980663;28;20488;-80
2023/02/12 08:35:39;;;;;;;21.10;10.60;;;4.80;99.90;;;5.45;100.00;100241.06;5002569;28;20565;-79
2023/02/12 08:38:10;;;;;;;23.30;10.93;;;4.80;99.90;;;5.46;100.00;100243.59;5001960;28;20921;-79
2023/02/12 08:40:42;;;;;;;15.80;9.60;;;4.90;99.90;;;5.49;100.00;100243.38;5000253;28;20486;-79
2023/02/12 08:43:13;;;;;;;20.07;10.63;;;4.80;99.90;;;5.53;100.00;100239.66;5000131;28;20522;-79
2023/02/12 08:45:43;;;;;;;16.03;10.30;;;4.90;99.90;;;5.56;100.00;100242.03;4999186;28;20463;-79
2023/02/12 08:48:13;;;;;;;21.50;11.07;;;4.90;99.90;;;5.59;100.00;100233.22;4999574;28;20475;-80
2023/02/12 08:50:42;;;;;;;15.60;10.10;;;4.90;99.90;;;5.65;100.00;100240.63;5001349;28;20973;-79
2023/02/12 08:53:13;;;;;;;21.30;12.23;;;5.00;99.90;;;5.68;100.00;100239.56;4997699;28;21031;-79
2023/02/12 08:55:49;;;;;;;19.33;11.30;;;5.10;99.90;;;5.71;100.00;100239.38;4997987;28;21031;-79
2023/02/12 08:58:19;;;;;;;22.53;11.47;;;5.20;99.90;;;5.74;100.00;100244.34;5000062;28;20861;-80
2023/02/12 09:00:48;;;;;;;20.67;10.90;;;5.20;99.90;;;5.74;100.00;100247.78;5000316;28;20638;-79
2023/02/12 09:03:19;;;;;;;20.47;11.87;;;5.20;99.90;;;5.78;100.00;100248.41;4999604;28;20590;-79
2023/02/12 09:05:50;;;;;;;25.83;13.27;;;5.20;99.90;;;5.80;100.00;100242.19;5001592;28;20447;-79
2023/02/12 09:08:21;;;;;;;26.30;12.43;;;5.30;99.90;;;5.83;100.00;100241.16;5000426;28;20917;-79
2023/02/12 09:10:52;;;;;;;22.93;12.87;;;5.30;99.90;;;5.84;100.00;100238.44;5000444;28;20863;-78
2023/02/12 09:13:22;;;;;;;24.10;12.30;;;5.30;99.90;;;5.87;100.00;100243.47;4997936;28;20464;-78
2023/02/12 09:15:52;;;;;;;20.50;11.93;;;5.30;99.90;;;5.90;100.00;100245.03;5001396;28;20578;-81
2023/02/12 09:18:22;;;;;;;29.67;15.07;;;5.30;99.90;;;5.91;100.00;100250.13;4999992;28;21083;-79
2023/02/12 09:20:52;;;;;;;21.37;11.53;;;5.30;99.90;;;5.93;100.00;100250.03;5001612;28;20499;-79
2023/02/12 09:23:23;;;;;;;28.03;13.20;;;5.40;99.90;;;5.95;100.00;100251.59;5001379;28;20525;-78
2023/02/12 09:25:53;;;;;;;23.30;13.60;;;5.40;99.90;;;5.99;100.00;100250.44;5003852;28;20470;-79
2023/02/12 09:28:24;;;;;;;27.57;12.90;;;5.40;99.90;;;6.02;100.00;100252.81;5004571;28;20961;-78
2023/02/12 09:30:54;;;;;;;26.37;13.60;;;5.50;99.90;;;6.03;100.00;100254.50;5003515;28;20513;-79
2023/02/12 09:33:24;;;;;;;24.10;12.43;;;5.50;99.90;;;6.04;100.00;100260.50;5002616;28;20475;-79
2023/02/12 09:35:54;;;;;;;21.93;12.90;;;5.50;99.90;;;6.07;100.00;100255.13;5004018;28;20910;-79
2023/02/12 09:38:26;;;;;;;25.57;13.40;;;5.50;99.90;;;6.11;100.00;100259.16;5003777;28;21015;-78
2023/02/12 09:41:23;;;;;;;34.10;15.77;;;5.60;99.90;;;6.12;100.00;100263.41;5002437;28;20482;-79
2023/02/12 09:44:01;;;;;;;29.57;16.00;;;5.60;99.90;;;6.15;100.00;100258.00;5003653;28;20881;-79
2023/02/12 09:46:41;;;;;;;38.50;17.90;;;5.60;99.90;;;6.18;100.00;100257.78;5003973;28;20465;-79
2023/02/12 09:49:26;;;;;;;33.83;17.50;;;5.60;99.90;;;6.19;100.00;100259.47;5003668;28;20508;-78
2023/02/12 09:52:00;;;;;;;40.33;17.17;;;5.70;99.90;;;6.22;100.00;100254.06;5004446;28;20475;-79
2023/02/12 09:54:39;;;;;;;44.57;18.03;;;5.70;99.90;;;6.28;100.00;100251.03;5003305;28;20525;-78
2023/02/12 09:57:23;;;;;;;43.47;18.23;;;5.80;99.90;;;6.30;100.00;100256.97;5004379;28;20502;-79
2023/02/12 10:00:00;;;;;;;47.43;18.50;;;5.80;99.90;;;6.33;100.00;100256.75;5005845;28;20556;-79
2023/02/12 10:02:29;;;;;;;42.00;18.00;;;5.90;99.90;;;6.37;100.00;100262.56;5007775;28;20458;-79
2023/02/12 10:05:00;;;;;;;39.37;17.20;;;5.90;99.90;;;6.39;100.00;100265.88;5006416;28;20538;-79
2023/02/12 10:07:56;;;;;;;32.90;15.87;;;5.90;99.90;;;6.43;100.00;100257.78;5008330;28;20486;-79
2023/02/12 10:10:49;;;;;;;36.33;15.13;;;6.00;99.90;;;6.45;100.00;100258.53;5007252;28;20477;-79
2023/02/12 10:13:44;;;;;;;32.73;15.53;;;6.00;99.90;;;6.47;100.00;100256.63;5004400;28;20459;-78
2023/02/12 10:16:50;;;;;;;33.23;16.70;;;6.00;99.90;;;6.50;100.00;100261.63;5007819;28;20885;-79
2023/02/12 10:20:15;;;;;;;31.73;15.40;;;6.10;99.90;;;6.53;100.00;100260.56;5008681;28;21021;-79
2023/02/12 10:23:00;;;;;;;39.53;16.50;;;6.00;99.90;;;6.57;100.00;100259.41;5005935;28;20463;-78
2023/02/12 10:25:41;;;;;;;32.03;15.30;;;6.10;99.90;;;6.58;100.00;100261.94;5006990;28;20459;-79
2023/02/12 10:28:17;;;;;;;36.90;17.50;;;6.10;99.90;;;6.62;100.00;100256.50;5007014;28;20462;-79
2023/02/12 10:30:54;;;;;;;36.50;15.57;;;6.20;99.90;;;6.63;100.00;100258.97;5007855;28;20490;-79
2023/02/12 10:33:31;;;;;;;32.50;15.07;;;6.20;99.90;;;6.68;100.00;100256.06;5006852;28;20553;-79
2023/02/12 10:36:17;;;;;;;33.27;15.50;;;6.30;99.90;;;6.69;100.00;100252.53;5006469;28;20576;-79
2023/02/12 10:38:55;;;;;;;28.10;13.87;;;6.30;99.90;;;6.71;100.00;100254.09;5007001;28;20959;-78